KCLW/CLW METAR and TAF weather

Enter ICAO airport designator
Station Type Date Time Source
KCLW METAR 2020/07/12 06:35 UTC NOAA

KCLW 120635Z AUTO 28004KT 10SM SCT016 SCT024 SCT032 28/25 A2989 RMK AO2


Station Type Date Time Source
KCLW Decoded METAR 2020/07/12 06:35 UTC NOAA

Station name not available
Jul 12, 2020 - 02:35 AM EDT / 2020.07.12 0635 UTC
Wind: from the W (280 degrees) at 5 MPH (4 KT):0
Visibility: 10 mile(s):0
Sky conditions: partly cloudy
Temperature: 82 F (28 C)
Dew Point: 77 F (25 C)
Relative Humidity: 83%
Pressure (altimeter): 29.89 in. Hg (1012 hPa)
ob: KCLW 120635Z AUTO 28004KT 10SM SCT016 SCT024 SCT032 28/25 A2989 RMK AO2
cycle: 6

Station Type Date Time Source
KCLW TAF UTC NOAA

Error!

Example: see airport list